Time;durP1;ratioP1;P1;durP2;ratioP2;P2;SDS_P1;SDS_P2;PMS_P1;PMS_P2;Temp;Humidity;BMP_temperature;BMP_pressure;BME280_temperature;BME280_humidity;BME280_pressure;Samples;Min_cycle;Max_cycle;Signal;HPM_P1;HPM_P2
2022/01/17 00:00:16;;;;;;;12.30;1.33;;;6.60;99.90;;;;;;5118770;27;20047;-82
2022/01/17 00:02:43;;;;;;;5.97;1.42;;;6.30;99.90;;;;;;5101799;27;20116;-80
2022/01/17 00:05:09;;;;;;;10.40;1.63;;;6.70;99.90;;;;;;5101788;27;20470;-80
2022/01/17 00:07:36;;;;;;;9.45;1.17;;;6.40;99.90;;;;;;5119707;27;20050;-78
2022/01/17 00:10:03;;;;;;;9.88;1.38;;;6.20;99.90;;;;;;5119614;27;20050;-77
2022/01/17 00:12:32;;;;;;;12.38;1.50;;;6.30;99.90;;;;;;5118933;27;20039;-78
2022/01/17 00:14:58;;;;;;;9.55;1.10;;;6.30;99.90;;;;;;5118521;27;20406;-77
2022/01/17 00:17:35;;;;;;;10.98;1.20;;;6.20;99.90;;;;;;5084523;27;20051;-80
2022/01/17 00:20:08;;;;;;;10.90;0.90;;;6.30;99.90;;;;;;5119508;27;20102;-79
2022/01/17 00:22:33;;;;;;;11.65;1.38;;;6.50;99.90;;;;;;5118513;27;20134;-79
2022/01/17 00:24:59;;;;;;;9.93;1.08;;;6.80;99.90;;;;;;5118525;27;20137;-78
2022/01/17 00:27:25;;;;;;;9.57;1.50;;;6.30;99.90;;;;;;5102201;27;20043;-78
2022/01/17 00:29:50;;;;;;;10.18;1.00;;;6.30;99.90;;;;;;5136550;27;20554;-78
2022/01/17 00:32:16;;;;;;;9.65;1.02;;;6.50;99.90;;;;;;5118285;27;20184;-79
2022/01/17 00:34:42;;;;;;;7.55;1.30;;;6.40;99.90;;;;;;5067999;27;20368;-81
2022/01/17 00:37:08;;;;;;;9.63;1.25;;;6.40;99.90;;;;;;5118380;27;20138;-81
2022/01/17 00:39:33;;;;;;;8.60;1.40;;;6.70;99.90;;;;;;5117266;27;20368;-81
2022/01/17 00:41:59;;;;;;;8.27;0.98;;;6.20;99.90;;;;;;5101207;27;20445;-81
2022/01/17 00:44:25;;;;;;;7.35;0.90;;;6.60;99.90;;;;;;5100910;27;20048;-79
2022/01/17 00:46:51;;;;;;;10.18;1.20;;;6.20;99.90;;;;;;5084584;27;20501;-81
2022/01/17 00:49:19;;;;;;;8.07;1.10;;;6.20;99.90;;;;;;5136155;27;20039;-77
2022/01/17 00:51:45;;;;;;;9.40;0.98;;;6.60;99.90;;;;;;5117998;27;20070;-80
2022/01/17 00:54:11;;;;;;;12.77;1.40;;;6.50;99.90;;;;;;5100962;27;20040;-78
2022/01/17 00:56:37;;;;;;;10.27;1.45;;;6.40;99.90;;;;;;5100334;27;20039;-80
2022/01/17 00:59:03;;;;;;;11.63;1.13;;;6.40;99.90;;;;;;5118219;27;20058;-80
2022/01/17 01:01:28;;;;;;;7.55;1.02;;;6.40;99.90;;;;;;5136157;27;20040;-80
2022/01/17 01:03:54;;;;;;;6.95;0.70;;;6.10;99.90;;;;;;5100497;27;20391;-80
2022/01/17 01:06:20;;;;;;;6.70;0.90;;;6.20;99.90;;;;;;5135696;27;20042;-78
2022/01/17 01:08:46;;;;;;;10.52;0.90;;;6.40;99.90;;;;;;5083438;27;20051;-77
2022/01/17 01:11:11;;;;;;;7.13;1.00;;;6.10;99.90;;;;;;5100966;27;20035;-79
2022/01/17 01:13:38;;;;;;;7.00;1.30;;;6.20;99.90;;;;;;5101167;27;20233;-84
2022/01/17 01:29:13;;;;;;;10.38;1.25;;;6.10;99.90;;;;;;5117216;27;20053;-80
2022/01/17 01:31:50;;;;;;;7.80;1.10;;;6.50;99.90;;;;;;5117219;27;20117;-78
2022/01/17 01:34:17;;;;;;;9.27;1.48;;;6.10;99.90;;;;;;5085202;27;20444;-79
2022/01/17 01:36:46;;;;;;;6.15;1.02;;;6.50;99.90;;;;;;5117191;27;20103;-78
2022/01/17 01:39:12;;;;;;;9.73;1.10;;;6.10;99.90;;;;;;5117124;27;20403;-80
2022/01/17 01:41:43;;;;;;;7.25;1.00;;;6.20;99.90;;;;;;5100359;27;20046;-79
2022/01/17 01:44:21;;;;;;;8.18;1.20;;;6.10;99.90;;;;;;5116976;27;20475;-77
2022/01/17 01:46:48;;;;;;;11.70;1.00;;;6.80;99.90;;;;;;5117247;27;20047;-79
2022/01/17 01:49:15;;;;;;;8.40;1.17;;;6.10;99.90;;;;;;5116817;27;20042;-76
2022/01/17 01:51:41;;;;;;;7.60;0.95;;;7.20;99.90;;;;;;5116841;27;20057;-78
2022/01/17 01:54:08;;;;;;;9.13;1.23;;;6.40;99.90;;;;;;5099907;27;20047;-81
2022/01/17 01:56:39;;;;;;;9.05;1.20;;;6.00;99.90;;;;;;5100073;27;20049;-80
2022/01/17 01:59:06;;;;;;;12.32;1.05;;;6.30;99.90;;;;;;5117440;27;20376;-81
2022/01/17 02:01:33;;;;;;;10.38;1.10;;;6.10;99.90;;;;;;5099734;27;20039;-80
2022/01/17 02:03:59;;;;;;;7.95;1.02;;;6.30;99.90;;;;;;5099523;27;20046;-80
2022/01/17 02:06:25;;;;;;;6.38;0.95;;;6.20;99.90;;;;;;5117307;28;20336;-79
2022/01/17 02:08:51;;;;;;;11.95;1.35;;;6.30;99.90;;;;;;5099631;27;20139;-80
2022/01/17 02:11:17;;;;;;;10.85;1.13;;;6.20;99.90;;;;;;5117341;27;20107;-80
2022/01/17 02:13:43;;;;;;;8.43;1.40;;;6.20;99.90;;;;;;5116660;27;20130;-81
2022/01/17 02:16:14;;;;;;;8.40;1.35;;;6.30;99.90;;;;;;5099033;27;20043;-80
2022/01/17 02:18:42;;;;;;;9.02;1.30;;;6.20;99.90;;;;;;5134705;27;20051;-80
2022/01/17 02:21:50;;;;;;;12.38;0.90;;;6.20;99.90;;;;;;5099490;28;20517;-77
2022/01/17 02:23:57;;;;;;;9.95;1.20;;;6.40;99.90;;;;;;5105452;28;20105;-79
2022/01/17 02:26:23;;;;;;;6.13;0.80;;;6.50;99.90;;;;;;5099518;28;20390;-79
2022/01/17 02:28:53;;;;;;;11.38;1.38;;;6.10;99.90;;;;;;5099434;28;20153;-80
2022/01/17 02:31:20;;;;;;;8.85;1.40;;;6.20;99.90;;;;;;5116416;28;20513;-81
2022/01/17 02:33:46;;;;;;;9.02;0.98;;;6.00;99.90;;;;;;5099343;28;20099;-79
2022/01/17 02:36:12;;;;;;;13.98;1.15;;;6.00;99.90;;;;;;5116703;28;20173;-79
2022/01/17 02:38:39;;;;;;;9.55;1.48;;;6.30;99.90;;;;;;5116315;28;20047;-79
2022/01/17 02:41:05;;;;;;;7.38;1.00;;;6.60;99.90;;;;;;5099221;28;20055;-78
2022/01/17 02:43:32;;;;;;;7.38;0.82;;;6.00;99.90;;;;;;5134365;28;20483;-79
2022/01/17 02:48:28;;;;;;;9.07;1.63;;;5.80;99.90;;;;;;5100428;28;20429;-79
2022/01/17 02:50:55;;;;;;;12.27;1.20;;;5.90;99.90;;;;;;5099268;28;20478;-80
2022/01/17 02:53:22;;;;;;;13.68;1.10;;;6.10;99.90;;;;;;5083283;28;20049;-80
2022/01/17 02:56:00;;;;;;;11.25;1.50;;;6.00;99.90;;;;;;5100010;28;20047;-78
2022/01/17 02:58:27;;;;;;;7.90;1.02;;;5.80;99.90;;;;;;5116900;28;20062;-81
2022/01/17 03:00:57;;;;;;;6.57;0.90;;;6.20;99.90;;;;;;5099971;27;20050;-81
2022/01/17 03:03:26;;;;;;;12.48;1.23;;;6.30;99.90;;;;;;5102427;27;20092;-79
2022/01/17 03:05:52;;;;;;;12.85;1.30;;;6.00;99.90;;;;;;5102953;27;20494;-80
2022/01/17 03:08:22;;;;;;;9.90;1.17;;;5.70;99.90;;;;;;5103257;27;20058;-79
2022/01/17 03:10:53;;;;;;;10.23;1.33;;;6.10;99.90;;;;;;5119999;27;20406;-79
2022/01/17 03:13:24;;;;;;;10.95;1.38;;;5.70;99.90;;;;;;5102634;27;20115;-79
2022/01/17 03:15:55;;;;;;;9.77;1.33;;;6.20;99.90;;;;;;5103478;27;20051;-77
2022/01/17 03:18:22;;;;;;;8.23;1.02;;;5.70;99.90;;;;;;5119128;27;20123;-80
2022/01/17 03:20:48;;;;;;;14.90;1.67;;;5.80;99.90;;;;;;5102888;27;20051;-81
2022/01/17 03:23:14;;;;;;;10.60;1.30;;;5.80;99.90;;;;;;5103026;27;20379;-80
2022/01/17 03:25:39;;;;;;;9.48;1.23;;;5.80;99.90;;;;;;5103577;27;20035;-80
2022/01/17 03:28:05;;;;;;;11.30;1.58;;;6.60;99.90;;;;;;5119284;27;20079;-80
2022/01/17 03:30:33;;;;;;;7.63;1.38;;;6.00;99.90;;;;;;5119603;27;20078;-81
2022/01/17 03:33:04;;;;;;;11.68;1.33;;;5.80;99.90;;;;;;5137673;27;20079;-80
2022/01/17 03:35:30;;;;;;;6.88;1.05;;;5.90;99.90;;;;;;5119902;27;20047;-80
2022/01/17 03:37:56;;;;;;;7.88;1.40;;;6.10;99.90;;;;;;5138360;27;20043;-81
2022/01/17 03:40:22;;;;;;;8.00;1.20;;;5.80;99.90;;;;;;5119365;27;20072;-80
2022/01/17 03:42:47;;;;;;;8.48;0.95;;;5.80;99.90;;;;;;5102602;27;20047;-77
2022/01/17 03:45:13;;;;;;;9.18;1.52;;;6.20;99.90;;;;;;5102029;27;20054;-78
2022/01/17 03:47:42;;;;;;;12.57;1.40;;;6.30;99.90;;;;;;5118954;27;20075;-79
2022/01/17 03:50:12;;;;;;;5.93;0.90;;;6.50;99.90;;;;;;5119074;27;20051;-79
2022/01/17 03:52:39;;;;;;;7.90;1.10;;;5.90;99.90;;;;;;5137288;27;20050;-77
2022/01/17 03:55:09;;;;;;;12.18;1.20;;;6.00;99.90;;;;;;5102228;27;20043;-74
2022/01/17 03:57:35;;;;;;;9.98;1.13;;;6.00;99.90;;;;;;5137197;27;20054;-75
2022/01/17 04:00:04;;;;;;;13.45;1.05;;;6.00;99.90;;;;;;5118775;27;20047;-78
2022/01/17 04:02:30;;;;;;;12.38;1.42;;;6.20;99.90;;;;;;5118932;27;20444;-79
2022/01/17 04:04:56;;;;;;;8.77;0.90;;;6.00;99.90;;;;;;5119555;27;20043;-77
2022/01/17 04:07:21;;;;;;;8.68;0.90;;;5.90;99.90;;;;;;5137020;27;20066;-79
2022/01/17 04:09:47;;;;;;;9.95;0.80;;;5.90;99.90;;;;;;5101830;27;20114;-80
2022/01/17 04:12:13;;;;;;;10.80;1.02;;;6.10;99.90;;;;;;5118725;27;20050;-79
2022/01/17 04:14:38;;;;;;;8.25;1.20;;;6.20;99.90;;;;;;5101321;27;20096;-80
2022/01/17 04:17:06;;;;;;;10.70;1.10;;;6.00;99.90;;;;;;5136929;27;20055;-80
2022/01/17 04:19:32;;;;;;;15.38;1.55;;;5.90;99.90;;;;;;5119562;27;20188;-79
2022/01/17 04:21:58;;;;;;;8.70;1.38;;;6.10;99.90;;;;;;5118351;27;20555;-80
2022/01/17 04:24:24;;;;;;;13.07;1.30;;;5.90;99.90;;;;;;5101467;27;20043;-78
2022/01/17 04:26:50;;;;;;;5.32;0.88;;;6.10;99.90;;;;;;5136928;27;20047;-80
2022/01/17 04:29:16;;;;;;;6.35;1.55;;;6.10;99.90;;;;;;5101245;27;20417;-79
2022/01/17 04:31:41;;;;;;;7.63;1.00;;;6.00;99.90;;;;;;5101251;27;20367;-78
2022/01/17 04:34:07;;;;;;;8.15;1.02;;;6.10;99.90;;;;;;5119077;27;20126;-79
2022/01/17 04:36:33;;;;;;;9.38;1.02;;;5.80;99.90;;;;;;5119221;27;20039;-82
2022/01/17 04:38:58;;;;;;;8.98;0.93;;;6.70;99.90;;;;;;5118058;27;20039;-77
2022/01/17 04:41:35;;;;;;;6.72;0.93;;;6.10;99.90;;;;;;5118304;27;20134;-78
2022/01/17 04:45:07;;;;;;;15.05;1.52;;;6.30;99.90;;;;;;5118209;27;20482;-74
2022/01/17 04:46:47;;;;;;;9.13;1.20;;;6.10;99.90;;;;;;5118020;27;20104;-77
2022/01/17 04:49:13;;;;;;;7.70;1.08;;;6.10;99.90;;;;;;5118904;27;20046;-81
2022/01/17 04:51:39;;;;;;;6.13;1.02;;;5.90;99.90;;;;;;5118036;27;20048;-80
2022/01/17 04:56:50;;;;;;;8.57;1.25;;;6.00;99.90;;;;;;5118793;27;20053;-78
2022/01/17 04:59:15;;;;;;;7.03;1.02;;;6.40;99.90;;;;;;5118099;27;20046;-78
2022/01/17 05:01:41;;;;;;;10.20;1.10;;;6.20;99.90;;;;;;5101716;27;20042;-81
2022/01/17 05:04:07;;;;;;;10.73;0.88;;;6.30;99.90;;;;;;5117376;27;20074;-80
2022/01/17 05:06:32;;;;;;;6.55;0.98;;;6.10;99.90;;;;;;5101631;27;20051;-78
2022/01/17 05:09:00;;;;;;;5.10;1.33;;;6.50;99.90;;;;;;5135785;27;20115;-80
2022/01/17 05:11:29;;;;;;;8.70;1.13;;;6.30;99.90;;;;;;5135782;27;20035;-80
2022/01/17 05:13:55;;;;;;;7.35;1.00;;;6.30;99.90;;;;;;5100903;27;20053;-79
2022/01/17 05:16:22;;;;;;;9.23;1.00;;;6.40;99.90;;;;;;5117255;27;20388;-76
2022/01/17 05:21:15;;;;;;;9.85;1.30;;;6.90;99.90;;;;;;5136694;27;20083;-75
2022/01/17 05:23:42;;;;;;;17.85;1.63;;;6.30;99.90;;;;;;5117404;27;20047;-75
2022/01/17 05:26:08;;;;;;;6.57;0.98;;;6.40;99.90;;;;;;5099989;27;20100;-78
2022/01/17 05:28:34;;;;;;;13.68;1.23;;;6.50;99.90;;;;;;5100385;27;20096;-78
2022/01/17 05:31:00;;;;;;;10.05;1.38;;;7.20;99.90;;;;;;5117311;27;20378;-78
2022/01/17 05:33:35;;;;;;;7.13;1.00;;;6.40;99.90;;;;;;5100350;27;20047;-78
2022/01/17 05:36:00;;;;;;;9.07;1.05;;;6.50;99.90;;;;;;5135924;27;20104;-75
2022/01/17 05:38:26;;;;;;;7.88;1.25;;;6.40;99.90;;;;;;5117079;27;20043;-80
2022/01/17 05:40:52;;;;;;;10.63;1.42;;;6.40;99.90;;;;;;5134908;27;20043;-79
2022/01/17 05:43:17;;;;;;;15.60;1.80;;;6.60;99.90;;;;;;5135932;27;20046;-81
2022/01/17 05:45:43;;;;;;;9.73;1.20;;;6.60;99.90;;;;;;5100826;27;20103;-80
2022/01/17 05:48:09;;;;;;;9.57;1.70;;;6.80;99.90;;;;;;5135656;27;20043;-78
2022/01/17 05:50:34;;;;;;;7.85;1.20;;;6.90;99.90;;;;;;5116803;27;20050;-80
2022/01/17 05:53:00;;;;;;;8.70;1.20;;;6.40;99.90;;;;;;5083088;27;20046;-78
2022/01/17 05:55:26;;;;;;;12.82;1.85;;;6.70;99.90;;;;;;5134928;27;20039;-78
2022/01/17 05:57:52;;;;;;;10.05;0.88;;;6.50;99.90;;;;;;5116530;27;20051;-79
2022/01/17 06:00:18;;;;;;;9.52;1.67;;;6.80;99.90;;;;;;5117599;27;20058;-79
2022/01/17 06:02:43;;;;;;;10.07;1.52;;;6.60;99.90;;;;;;5082803;27;20413;-79
2022/01/17 06:05:09;;;;;;;11.40;1.45;;;6.50;99.90;;;;;;5116641;27;20049;-77
2022/01/17 06:07:35;;;;;;;7.13;1.52;;;6.40;99.90;;;;;;5082926;27;20046;-76
2022/01/17 06:10:01;;;;;;;10.85;1.83;;;6.70;99.90;;;;;;5116474;27;20043;-76
2022/01/17 06:12:27;;;;;;;9.50;2.13;;;7.30;99.90;;;;;;5116103;28;20074;-77
2022/01/17 06:14:52;;;;;;;15.82;1.77;;;6.50;99.90;;;;;;5116451;27;20054;-82
2022/01/17 06:17:18;;;;;;;11.98;1.65;;;6.70;99.90;;;;;;5099207;27;20054;-80
2022/01/17 06:19:44;;;;;;;9.63;1.60;;;6.70;99.90;;;;;;5116889;27;20086;-79
2022/01/17 06:22:10;;;;;;;9.45;1.85;;;6.60;99.90;;;;;;5082676;27;20043;-83
2022/01/17 06:24:36;;;;;;;11.32;1.90;;;6.80;99.90;;;;;;5116411;28;20099;-78
2022/01/17 06:27:03;;;;;;;12.00;1.50;;;6.70;99.90;;;;;;5099858;28;20486;-79
2022/01/17 06:29:28;;;;;;;6.80;1.30;;;6.30;99.90;;;;;;5100187;28;20050;-78
2022/01/17 06:31:54;;;;;;;16.65;2.08;;;6.60;99.90;;;;;;5082969;28;20043;-76
2022/01/17 06:34:20;;;;;;;9.90;1.88;;;6.70;99.90;;;;;;5116270;28;20042;-74
2022/01/17 06:36:46;;;;;;;12.30;2.28;;;6.80;99.90;;;;;;5118113;27;20075;-81
2022/01/17 06:39:11;;;;;;;11.95;1.65;;;6.80;99.90;;;;;;5139297;27;20046;-79
2022/01/17 06:41:39;;;;;;;6.95;1.90;;;6.90;99.90;;;;;;5087376;27;20183;-77
2022/01/17 06:44:05;;;;;;;12.35;1.73;;;7.00;99.90;;;;;;5120205;27;20032;-77
2022/01/17 06:46:31;;;;;;;9.52;1.75;;;6.90;99.90;;;;;;5120500;27;20538;-81
2022/01/17 06:48:57;;;;;;;11.75;2.45;;;7.00;99.90;;;;;;5104173;27;20047;-78
2022/01/17 06:51:23;;;;;;;13.80;1.98;;;7.30;99.90;;;;;;5120186;27;20047;-77
2022/01/17 06:53:50;;;;;;;11.88;2.00;;;6.80;99.90;;;;;;5103424;27;20104;-79
2022/01/17 06:56:16;;;;;;;14.10;2.47;;;6.70;99.90;;;;;;5138407;27;20108;-81
2022/01/17 06:58:44;;;;;;;10.93;1.75;;;7.10;99.90;;;;;;5119996;27;20046;-78
2022/01/17 07:01:11;;;;;;;9.88;1.70;;;6.80;99.90;;;;;;5103556;27;20395;-76
2022/01/17 07:03:37;;;;;;;12.55;2.30;;;6.60;99.90;;;;;;5138199;27;20487;-80
2022/01/17 07:06:03;;;;;;;6.18;1.70;;;6.80;99.90;;;;;;5120711;27;20053;-86
2022/01/17 07:08:29;;;;;;;8.70;2.40;;;6.60;99.90;;;;;;5138964;27;20043;-80
2022/01/17 07:10:55;;;;;;;11.68;2.10;;;6.70;99.90;;;;;;5137860;27;20039;-84
2022/01/17 07:13:21;;;;;;;14.38;2.35;;;6.70;99.90;;;;;;5119745;27;20031;-81
2022/01/17 07:15:47;;;;;;;13.65;2.13;;;7.00;99.90;;;;;;5119673;27;20039;-79
2022/01/17 07:18:13;;;;;;;17.48;2.63;;;6.50;99.90;;;;;;5138567;27;20141;-78
2022/01/17 07:20:39;;;;;;;10.93;1.83;;;6.60;99.90;;;;;;5103165;27;20070;-80
2022/01/17 07:23:05;;;;;;;14.45;2.53;;;6.80;99.90;;;;;;5102740;27;20040;-79
2022/01/17 07:25:31;;;;;;;14.15;1.80;;;7.10;99.90;;;;;;5102776;27;20043;-82
2022/01/17 07:27:57;;;;;;;13.43;1.88;;;6.70;99.90;;;;;;5119462;27;20486;-80
2022/01/17 07:30:24;;;;;;;11.63;1.65;;;6.80;99.90;;;;;;5102843;27;20391;-79
2022/01/17 07:32:50;;;;;;;14.75;2.33;;;7.00;99.90;;;;;;5102515;27;20050;-78
2022/01/17 07:35:15;;;;;;;14.23;2.60;;;6.90;99.90;;;;;;5119540;27;20091;-83
2022/01/17 07:37:41;;;;;;;13.63;2.15;;;6.90;99.90;;;;;;5119453;27;20043;-76
2022/01/17 07:40:09;;;;;;;14.65;2.10;;;6.50;99.90;;;;;;5102429;27;20054;-73
2022/01/17 07:42:35;;;;;;;11.65;1.95;;;6.60;99.90;;;;;;5120145;27;20045;-81
2022/01/17 07:45:09;;;;;;;17.55;2.92;;;6.90;99.90;;;;;;5119218;27;20535;-75
2022/01/17 07:50:25;;;;;;;15.73;2.85;;;7.10;99.90;;;;;;5081386;27;20099;-75
2022/01/17 07:52:52;;;;;;;17.60;2.13;;;7.10;99.90;;;;;;5102142;27;20047;-75
2022/01/17 07:55:19;;;;;;;11.98;2.20;;;7.10;99.90;;;;;;5119944;27;20062;-75
2022/01/17 07:57:46;;;;;;;16.58;2.03;;;7.00;99.90;;;;;;5119142;27;20501;-75
2022/01/17 08:00:15;;;;;;;14.27;2.95;;;7.20;99.90;;;;;;5137149;27;20479;-85
2022/01/17 08:02:41;;;;;;;18.95;3.45;;;6.90;99.90;;;;;;5118707;27;20054;-77
2022/01/17 08:05:10;;;;;;;12.77;1.73;;;7.50;99.90;;;;;;5118794;27;20051;-78
2022/01/17 08:07:35;;;;;;;21.17;3.20;;;7.00;99.90;;;;;;5085545;27;20085;-76
2022/01/17 08:10:01;;;;;;;16.85;3.00;;;7.70;99.90;;;;;;5119273;27;20398;-81
2022/01/17 08:12:27;;;;;;;19.77;3.65;;;7.10;99.90;;;;;;5119627;27;20095;-77
2022/01/17 08:14:57;;;;;;;16.85;3.08;;;7.50;99.90;;;;;;5101827;27;20123;-79
2022/01/17 08:17:23;;;;;;;12.75;3.20;;;7.30;99.90;;;;;;5118639;27;20055;-77
2022/01/17 08:19:49;;;;;;;17.35;2.45;;;7.10;99.90;;;;;;5118526;27;20398;-83
2022/01/17 08:22:14;;;;;;;19.08;2.65;;;7.20;99.90;;;;;;5136767;27;20055;-75
2022/01/17 08:24:40;;;;;;;17.67;2.58;;;7.10;99.90;;;;;;5118429;27;20035;-79
2022/01/17 08:27:06;;;;;;;13.07;3.45;;;7.20;99.90;;;;;;5118666;27;20054;-79
2022/01/17 08:29:33;;;;;;;18.35;2.85;;;7.20;99.90;;;;;;5102182;27;20129;-79
2022/01/17 08:32:03;;;;;;;13.45;2.03;;;7.20;99.90;;;;;;5136518;27;20047;-78
2022/01/17 08:34:29;;;;;;;16.70;2.17;;;7.60;99.90;;;;;;5101997;27;20055;-80
2022/01/17 08:36:54;;;;;;;18.65;2.65;;;7.50;99.90;;;;;;5085333;27;20049;-76
2022/01/17 08:39:20;;;;;;;17.40;2.67;;;7.50;99.90;;;;;;5118288;27;20042;-78
2022/01/17 08:41:47;;;;;;;17.50;3.13;;;7.50;99.90;;;;;;5118588;27;20043;-77
2022/01/17 08:44:13;;;;;;;22.63;2.92;;;7.60;99.90;;;;;;5084696;27;20044;-81
2022/01/17 08:46:40;;;;;;;16.50;2.63;;;7.60;99.90;;;;;;5101577;27;20047;-81
2022/01/17 08:49:06;;;;;;;19.65;2.40;;;7.30;99.90;;;;;;5136757;27;20456;-77
2022/01/17 08:51:32;;;;;;;13.70;2.33;;;7.40;99.90;;;;;;5136371;27;20043;-84
2022/01/17 08:53:58;;;;;;;20.88;2.55;;;7.50;99.90;;;;;;5118210;27;20134;-79
2022/01/17 08:56:27;;;;;;;18.40;2.95;;;7.40;99.90;;;;;;5136894;27;20051;-81
2022/01/17 08:58:53;;;;;;;16.88;1.95;;;8.30;99.90;;;;;;5117512;27;20045;-77
2022/01/17 09:01:19;;;;;;;20.35;2.95;;;7.80;99.90;;;;;;5135759;27;20130;-77
2022/01/17 09:03:45;;;;;;;22.98;3.58;;;7.60;99.90;;;;;;5117557;27;20126;-80
2022/01/17 09:06:11;;;;;;;19.42;3.03;;;7.60;99.90;;;;;;5135973;27;20047;-76
2022/01/17 09:08:37;;;;;;;18.30;2.90;;;7.90;99.90;;;;;;5136119;27;20050;-80
2022/01/17 09:11:02;;;;;;;16.25;3.85;;;7.50;99.90;;;;;;5100459;27;20467;-81
2022/01/17 09:13:28;;;;;;;16.98;2.88;;;8.00;99.90;;;;;;5117768;27;20050;-85
2022/01/17 09:15:54;;;;;;;16.33;2.97;;;8.00;99.90;;;;;;5100966;27;20043;-75
2022/01/17 09:18:22;;;;;;;19.67;2.85;;;7.80;99.90;;;;;;5118169;27;20356;-77
2022/01/17 09:20:48;;;;;;;19.13;3.28;;;7.90;99.90;;;;;;5117377;27;20047;-82
2022/01/17 09:23:14;;;;;;;16.58;2.67;;;7.90;99.90;;;;;;5135643;27;20043;-81
2022/01/17 09:25:40;;;;;;;19.48;3.22;;;7.90;99.90;;;;;;5117851;27;20078;-74
2022/01/17 09:28:06;;;;;;;21.05;2.70;;;8.10;99.90;;;;;;5135549;27;20058;-74
2022/01/17 09:30:32;;;;;;;21.30;3.22;;;8.10;99.90;;;;;;5101425;27;20047;-77
2022/01/17 09:32:58;;;;;;;22.33;3.55;;;8.20;99.90;;;;;;5117532;27;20039;-78
2022/01/17 09:35:24;;;;;;;20.58;3.38;;;8.00;99.90;;;;;;5135465;27;20047;-77
2022/01/17 09:37:51;;;;;;;20.38;3.28;;;8.30;99.90;;;;;;5135388;27;20099;-73
2022/01/17 09:40:19;;;;;;;19.73;2.80;;;9.90;99.90;;;;;;5135389;27;20047;-74
2022/01/17 09:42:45;;;;;;;20.95;3.20;;;8.30;99.90;;;;;;5117298;27;20079;-75
2022/01/17 09:45:14;;;;;;;18.13;3.35;;;8.40;99.90;;;;;;5100216;27;20043;-75
2022/01/17 09:47:41;;;;;;;22.25;3.38;;;8.00;99.90;;;;;;5099809;27;20043;-85
2022/01/17 09:50:17;;;;;;;20.23;2.78;;;8.00;99.90;;;;;;5083354;27;20475;-82
2022/01/17 09:52:49;;;;;;;21.25;3.22;;;8.60;99.90;;;;;;5117082;27;20076;-80
2022/01/17 09:55:27;;;;;;;15.90;2.75;;;8.40;99.90;;;;;;5117297;27;20046;-74
2022/01/17 09:58:02;;;;;;;17.60;3.20;;;8.30;99.90;;;;;;5117005;27;20134;-82
2022/01/17 10:00:32;;;;;;;20.02;4.72;;;8.20;99.90;;;;;;5135121;27;20047;-74
2022/01/17 10:03:00;;;;;;;23.70;3.80;;;8.40;99.90;;;;;;5134915;27;20047;-73
2022/01/17 10:05:27;;;;;;;22.58;3.58;;;8.50;99.90;;;;;;5117703;27;20054;-79
2022/01/17 10:08:04;;;;;;;20.13;3.33;;;8.50;99.90;;;;;;5116647;27;20133;-82
2022/01/17 10:10:57;;;;;;;28.30;3.83;;;8.10;99.90;;;;;;5135148;27;20475;-73
2022/01/17 10:13:35;;;;;;;23.55;3.70;;;8.30;99.90;;;;;;5117119;27;20043;-75
2022/01/17 10:16:08;;;;;;;22.23;3.92;;;8.60;99.90;;;;;;5116864;27;20386;-75
2022/01/17 10:18:37;;;;;;;21.80;3.53;;;8.40;99.90;;;;;;5113040;28;20127;-74
2022/01/17 10:21:12;;;;;;;24.65;3.95;;;8.60;99.90;;;;;;5114547;28;20043;-84
2022/01/17 10:29:13;;;;;;;26.50;5.05;;;8.50;99.90;;;;;;5113104;28;20048;-75
2022/01/17 10:37:09;;;;;;;22.70;3.65;;;8.60;99.90;;;;;;5113113;28;20130;-83
2022/01/17 10:39:38;;;;;;;25.08;3.90;;;9.20;99.90;;;;;;5114874;28;20127;-75
2022/01/17 10:42:23;;;;;;;24.25;4.65;;;8.80;99.90;;;;;;5114618;28;20051;-74
2022/01/17 10:44:49;;;;;;;26.45;4.25;;;8.90;99.90;;;;;;5095789;28;20047;-78
2022/01/17 10:47:27;;;;;;;23.17;3.25;;;8.70;99.90;;;;;;5114003;28;20039;-75
2022/01/17 10:49:58;;;;;;;26.67;4.45;;;8.70;99.90;;;;;;5113338;28;20047;-81
2022/01/17 10:52:56;;;;;;;24.88;4.20;;;8.60;99.90;;;;;;5096071;28;20084;-79
2022/01/17 10:55:23;;;;;;;25.45;3.97;;;8.60;99.90;;;;;;5113897;28;20425;-82
2022/01/17 10:57:51;;;;;;;18.38;3.30;;;8.90;99.90;;;;;;5113224;28;20097;-76
2022/01/17 11:00:25;;;;;;;33.65;4.60;;;9.00;99.90;;;;;;5112426;28;20097;-75
2022/01/17 11:03:00;;;;;;;27.15;4.10;;;8.70;99.90;;;;;;5113672;28;20065;-74
2022/01/17 11:05:28;;;;;;;25.40;4.07;;;8.50;99.90;;;;;;5111056;28;20039;-73
2022/01/17 11:07:58;;;;;;;26.35;4.72;;;8.90;99.90;;;;;;5112745;28;20055;-74
2022/01/17 11:10:26;;;;;;;38.40;4.85;;;8.90;99.90;;;;;;5113993;28;20066;-75
2022/01/17 11:12:54;;;;;;;28.77;4.65;;;9.20;99.90;;;;;;5112226;28;20413;-76
2022/01/17 11:15:21;;;;;;;24.20;4.47;;;8.90;99.90;;;;;;5113434;28;20048;-77
2022/01/17 11:17:53;;;;;;;29.23;4.68;;;8.70;99.90;;;;;;5094884;28;20059;-76
2022/01/17 11:20:21;;;;;;;27.95;5.03;;;8.70;99.90;;;;;;5112857;28;20059;-76
2022/01/17 11:22:49;;;;;;;31.52;5.50;;;8.70;99.90;;;;;;5112648;28;20039;-76
2022/01/17 11:25:19;;;;;;;27.33;5.25;;;8.70;99.90;;;;;;5117040;28;20395;-76
2022/01/17 11:27:45;;;;;;;29.73;5.85;;;8.80;99.90;;;;;;5115275;28;20039;-81
2022/01/17 11:30:11;;;;;;;28.92;5.20;;;8.70;99.90;;;;;;5099232;28;20054;-80
2022/01/17 11:32:37;;;;;;;28.42;5.03;;;8.80;99.90;;;;;;5116307;28;20050;-76
2022/01/17 11:35:05;;;;;;;29.02;5.00;;;8.70;99.90;;;;;;5115328;28;20044;-74
2022/01/17 11:37:38;;;;;;;24.85;5.55;;;8.70;99.90;;;;;;5098360;28;20047;-77
2022/01/17 11:40:08;;;;;;;20.17;4.40;;;8.60;99.90;;;;;;5115831;28;20043;-74
2022/01/17 11:42:37;;;;;;;24.23;4.72;;;8.60;99.90;;;;;;5116246;28;20044;-81
2022/01/17 11:45:22;;;;;;;27.40;4.10;;;8.70;99.90;;;;;;5115102;28;20079;-81
2022/01/17 11:47:56;;;;;;;25.67;4.75;;;8.80;99.90;;;;;;5115476;28;20063;-83
2022/01/17 11:50:28;;;;;;;26.85;5.25;;;8.90;99.90;;;;;;5114979;28;20471;-79
2022/01/17 11:52:58;;;;;;;25.85;4.53;;;8.80;99.90;;;;;;5116093;28;20079;-75
2022/01/17 11:55:42;;;;;;;25.60;5.10;;;8.90;99.90;;;;;;5116798;28;20050;-73
2022/01/17 11:58:29;;;;;;;27.83;5.57;;;8.70;99.90;;;;;;5098274;28;20054;-75
2022/01/17 12:00:57;;;;;;;21.58;4.75;;;8.90;99.90;;;;;;5115660;28;20050;-76
2022/01/17 12:03:53;;;;;;;27.45;4.88;;;9.20;99.90;;;;;;5115417;28;20048;-76
2022/01/17 12:06:28;;;;;;;28.15;6.00;;;8.90;99.90;;;;;;5114921;28;20046;-75
2022/01/17 12:09:16;;;;;;;27.77;5.22;;;9.00;99.90;;;;;;5114901;28;20048;-76
2022/01/17 12:11:42;;;;;;;25.00;4.30;;;9.10;99.90;;;;;;5116377;28;20086;-72
2022/01/17 12:14:27;;;;;;;27.70;5.03;;;9.00;99.90;;;;;;5114642;28;20063;-74
2022/01/17 12:16:54;;;;;;;20.45;5.07;;;9.00;99.90;;;;;;5119447;27;20086;-74
2022/01/17 12:19:20;;;;;;;20.33;4.80;;;9.00;99.90;;;;;;5136174;27;20047;-80
2022/01/17 12:21:53;;;;;;;30.23;5.43;;;9.30;99.90;;;;;;5117763;27;20099;-78
2022/01/17 12:24:39;;;;;;;24.67;4.50;;;9.90;99.90;;;;;;5117955;27;20039;-79
2022/01/17 12:27:08;;;;;;;28.27;4.93;;;9.10;99.90;;;;;;5117272;27;20550;-72
2022/01/17 12:29:47;;;;;;;27.45;5.00;;;9.20;99.90;;;;;;5118319;27;20047;-74
2022/01/17 12:32:25;;;;;;;25.05;4.35;;;9.20;99.90;;;;;;5118255;27;20471;-81
2022/01/17 12:35:04;;;;;;;23.98;4.22;;;9.20;99.90;;;;;;5099473;27;20039;-74
2022/01/17 12:37:32;;;;;;;20.27;4.72;;;9.20;99.90;;;;;;5118829;27;20437;-79
2022/01/17 12:40:10;;;;;;;23.35;4.72;;;9.20;99.90;;;;;;5117830;27;20050;-79
2022/01/17 12:42:55;;;;;;;28.63;4.68;;;9.20;99.90;;;;;;5118545;27;20043;-81
2022/01/17 12:46:08;;;;;;;25.30;4.75;;;9.30;99.90;;;;;;5117467;27;20406;-73
2022/01/17 12:48:37;;;;;;;21.75;3.60;;;9.20;99.90;;;;;;5115628;27;20171;-74
2022/01/17 12:51:06;;;;;;;18.58;3.83;;;9.00;99.90;;;;;;5117325;27;20395;-74
2022/01/17 12:53:33;;;;;;;21.70;3.50;;;9.40;99.90;;;;;;5136293;27;20039;-75
2022/01/17 12:56:06;;;;;;;27.45;4.05;;;9.30;99.90;;;;;;5118921;27;20379;-77
2022/01/17 12:58:37;;;;;;;25.45;4.72;;;9.00;99.90;;;;;;5136102;27;20103;-72
2022/01/17 13:01:08;;;;;;;23.60;3.97;;;9.40;99.90;;;;;;5118395;27;20053;-73
2022/01/17 13:03:37;;;;;;;21.23;3.78;;;9.20;99.90;;;;;;5136022;27;20088;-72
2022/01/17 13:06:06;;;;;;;23.25;3.13;;;9.10;99.90;;;;;;5117762;27;20455;-73
2022/01/17 13:08:31;;;;;;;19.30;4.03;;;9.40;99.90;;;;;;5136099;27;20039;-74
2022/01/17 13:11:00;;;;;;;20.10;2.90;;;9.10;99.90;;;;;;5136467;27;20058;-77
2022/01/17 13:13:26;;;;;;;18.55;2.97;;;9.20;99.90;;;;;;5135905;27;20118;-82
2022/01/17 13:16:01;;;;;;;18.10;2.97;;;9.10;99.90;;;;;;5135892;27;20051;-72
2022/01/17 13:18:29;;;;;;;17.52;3.75;;;9.10;99.90;;;;;;5114002;28;20433;-74
2022/01/17 13:20:56;;;;;;;22.15;3.55;;;9.10;99.90;;;;;;5114115;28;20047;-78
2022/01/17 13:23:31;;;;;;;21.38;3.45;;;9.10;99.90;;;;;;5113970;28;20036;-75
2022/01/17 13:25:57;;;;;;;16.95;3.80;;;9.20;99.90;;;;;;5097508;28;20463;-83
2022/01/17 13:28:23;;;;;;;18.95;3.33;;;9.10;99.90;;;;;;5114055;28;20369;-73
2022/01/17 13:30:49;;;;;;;23.27;3.60;;;9.30;99.90;;;;;;5097357;28;20096;-74